Time;durP1;ratioP1;P1;durP2;ratioP2;P2;SDS_P1;SDS_P2;PMS_P1;PMS_P2;Temp;Humidity;BMP_temperature;BMP_pressure;BME280_temperature;BME280_humidity;BME280_pressure;Samples;Min_cycle;Max_cycle;Signal;HPM_P1;HPM_P2
2021/03/03 00:00:26;;;;;;;15.07;8.67;;;11.30;99.90;;;;;;4971020;28;20249;-71
2021/03/03 00:02:52;;;;;;;18.50;9.13;;;11.10;99.90;;;;;;4970543;28;20220;-70
2021/03/03 00:05:19;;;;;;;16.77;9.30;;;11.10;99.90;;;;;;4971176;28;20206;-71
2021/03/03 00:07:45;;;;;;;15.90;9.07;;;11.10;99.90;;;;;;4970946;28;20590;-71
2021/03/03 00:10:14;;;;;;;10.87;8.07;;;11.20;99.90;;;;;;4971034;28;20582;-73
2021/03/03 00:12:40;;;;;;;17.33;8.50;;;11.10;99.90;;;;;;4971383;28;20305;-70
2021/03/03 00:15:08;;;;;;;21.00;9.07;;;11.20;99.90;;;;;;4970488;28;20213;-71
2021/03/03 00:17:34;;;;;;;17.57;8.90;;;11.20;99.90;;;;;;4971569;28;20210;-70
2021/03/03 00:20:01;;;;;;;14.00;7.80;;;11.20;99.90;;;;;;4971270;28;20213;-74
2021/03/03 00:22:27;;;;;;;21.27;8.10;;;11.10;99.90;;;;;;4970537;28;20209;-73
2021/03/03 00:24:54;;;;;;;15.43;8.33;;;11.20;99.90;;;;;;4971424;28;20206;-73
2021/03/03 00:27:21;;;;;;;15.67;10.50;;;11.30;99.90;;;;;;4970815;28;20213;-74
2021/03/03 00:29:47;;;;;;;14.47;8.70;;;11.20;99.90;;;;;;4971128;28;20217;-72
2021/03/03 00:32:14;;;;;;;17.97;8.70;;;11.10;99.90;;;;;;4973362;28;20264;-72
2021/03/03 00:34:40;;;;;;;20.50;8.60;;;11.10;99.90;;;;;;4974626;28;20202;-72
2021/03/03 00:37:07;;;;;;;16.13;8.43;;;11.00;99.90;;;;;;4973883;28;20222;-73
2021/03/03 00:39:33;;;;;;;14.63;9.47;;;11.00;99.90;;;;;;4974991;28;20233;-72
2021/03/03 00:42:00;;;;;;;19.37;8.40;;;11.10;99.90;;;;;;4974800;28;20214;-74
2021/03/03 00:44:27;;;;;;;21.03;8.63;;;10.90;99.90;;;;;;4973840;28;20229;-74
2021/03/03 00:46:54;;;;;;;29.47;9.70;;;10.90;99.90;;;;;;4974543;28;20213;-74
2021/03/03 00:49:20;;;;;;;16.83;9.13;;;10.90;99.90;;;;;;4973688;28;20673;-73
2021/03/03 00:51:46;;;;;;;21.37;10.03;;;10.90;99.90;;;;;;4974083;28;20213;-74
2021/03/03 00:54:13;;;;;;;14.77;8.77;;;11.00;99.90;;;;;;4973979;28;20245;-76
2021/03/03 00:56:40;;;;;;;11.40;6.70;;;11.00;99.90;;;;;;4974414;28;20206;-74
2021/03/03 00:59:06;;;;;;;12.40;7.73;;;11.00;99.90;;;;;;4974012;28;20788;-75
2021/03/03 01:01:33;;;;;;;15.70;8.00;;;11.00;99.90;;;;;;4974345;28;20210;-75
2021/03/03 01:04:00;;;;;;;18.10;8.40;;;10.90;99.90;;;;;;4974341;28;20205;-75
2021/03/03 01:06:26;;;;;;;20.17;9.07;;;11.00;99.90;;;;;;4973691;28;20237;-76
2021/03/03 01:08:53;;;;;;;19.33;7.80;;;11.00;99.90;;;;;;4974028;28;20210;-76
2021/03/03 01:11:19;;;;;;;14.30;9.20;;;10.90;99.90;;;;;;4973711;28;20221;-76
2021/03/03 01:13:46;;;;;;;12.97;7.80;;;11.00;99.90;;;;;;4974040;28;20256;-76
2021/03/03 01:16:12;;;;;;;12.57;7.87;;;11.00;99.90;;;;;;4973309;28;20705;-76
2021/03/03 01:18:40;;;;;;;16.03;7.60;;;11.00;99.90;;;;;;4973655;28;20240;-76
2021/03/03 01:21:06;;;;;;;12.70;8.13;;;11.00;99.90;;;;;;4973668;28;20221;-77
2021/03/03 01:23:33;;;;;;;15.90;8.00;;;11.00;99.90;;;;;;4974058;28;20264;-76
2021/03/03 01:25:59;;;;;;;15.53;7.33;;;11.00;99.90;;;;;;4973922;28;20242;-77
2021/03/03 01:28:26;;;;;;;11.07;7.73;;;10.90;99.90;;;;;;4973482;28;20213;-77
2021/03/03 01:30:52;;;;;;;11.93;7.33;;;10.80;99.90;;;;;;4973539;28;20205;-76
2021/03/03 01:33:26;;;;;;;14.57;8.53;;;10.80;99.90;;;;;;4973283;28;20240;-77
2021/03/03 01:35:53;;;;;;;16.10;7.20;;;10.70;99.90;;;;;;4973225;28;20206;-77
2021/03/03 01:38:20;;;;;;;11.10;6.30;;;10.90;99.90;;;;;;4972899;28;20671;-77
2021/03/03 01:40:47;;;;;;;15.10;7.47;;;10.80;99.90;;;;;;4973165;28;20217;-77
2021/03/03 01:43:13;;;;;;;18.17;7.80;;;10.80;99.90;;;;;;4972145;28;20206;-76
2021/03/03 01:45:41;;;;;;;17.03;6.70;;;10.90;99.90;;;;;;4973248;28;20209;-74
2021/03/03 01:48:08;;;;;;;12.43;6.07;;;10.80;99.90;;;;;;4972991;28;20720;-74
2021/03/03 01:50:37;;;;;;;13.60;7.53;;;10.70;99.90;;;;;;4973511;28;20244;-75
2021/03/03 01:53:05;;;;;;;10.07;6.47;;;10.70;99.90;;;;;;4973159;28;20210;-75
2021/03/03 01:55:32;;;;;;;12.83;5.60;;;10.80;99.90;;;;;;4973368;28;20205;-76
2021/03/03 01:57:59;;;;;;;15.80;6.07;;;10.80;99.90;;;;;;4972643;28;20366;-76
2021/03/03 02:00:25;;;;;;;11.73;6.23;;;10.70;99.90;;;;;;4972802;28;20271;-75
2021/03/03 02:02:52;;;;;;;11.83;6.23;;;10.70;99.90;;;;;;4972979;28;20205;-76
2021/03/03 02:05:19;;;;;;;15.27;6.43;;;10.70;99.90;;;;;;4972945;28;20217;-77
2021/03/03 02:07:51;;;;;;;13.17;6.60;;;10.60;99.90;;;;;;4972717;28;20213;-76
2021/03/03 02:10:25;;;;;;;13.13;6.47;;;10.80;99.90;;;;;;4972715;28;20206;-76
2021/03/03 02:12:57;;;;;;;16.17;6.80;;;10.70;99.90;;;;;;4972269;28;20685;-76
2021/03/03 02:15:24;;;;;;;10.83;5.37;;;10.70;99.90;;;;;;4972400;28;20202;-76
2021/03/03 02:17:54;;;;;;;11.10;5.77;;;10.80;99.90;;;;;;4972597;28;20287;-77
2021/03/03 02:20:24;;;;;;;13.57;5.83;;;10.80;99.90;;;;;;4972351;28;20233;-76
2021/03/03 02:23:01;;;;;;;8.67;5.50;;;10.70;99.90;;;;;;4972793;28;20221;-77
2021/03/03 02:25:31;;;;;;;6.57;5.60;;;10.70;99.90;;;;;;4971946;28;20224;-77
2021/03/03 02:28:01;;;;;;;10.67;5.57;;;10.70;99.90;;;;;;4972739;28;20610;-74
2021/03/03 02:30:29;;;;;;;11.53;5.87;;;10.70;99.90;;;;;;4971939;28;20276;-75
2021/03/03 02:32:56;;;;;;;11.13;5.17;;;10.70;99.90;;;;;;4972667;28;20216;-75
2021/03/03 02:35:23;;;;;;;9.20;5.67;;;10.70;99.90;;;;;;4971852;28;20209;-74
2021/03/03 02:37:49;;;;;;;9.33;5.57;;;10.70;99.90;;;;;;4972168;28;20221;-74
2021/03/03 02:40:17;;;;;;;13.97;6.07;;;10.70;99.90;;;;;;4972038;28;20206;-74
2021/03/03 02:42:45;;;;;;;9.77;5.90;;;10.70;99.90;;;;;;4972254;28;20234;-75
2021/03/03 02:45:15;;;;;;;10.73;5.33;;;10.70;99.90;;;;;;4972218;28;20213;-74
2021/03/03 02:47:42;;;;;;;9.60;4.67;;;10.70;99.90;;;;;;4971987;28;20586;-75
2021/03/03 02:50:11;;;;;;;6.63;5.00;;;10.70;99.90;;;;;;4971706;28;20229;-77
2021/03/03 02:52:48;;;;;;;9.67;6.47;;;10.60;99.90;;;;;;4971778;28;20217;-77
2021/03/03 02:55:15;;;;;;;9.27;5.27;;;10.60;99.90;;;;;;4971552;28;20216;-77
2021/03/03 02:57:42;;;;;;;9.97;4.50;;;10.50;99.90;;;;;;4971773;28;20210;-76
2021/03/03 03:00:11;;;;;;;8.97;4.33;;;10.60;99.90;;;;;;4971625;28;20214;-77
2021/03/03 03:02:41;;;;;;;7.37;4.43;;;10.60;99.90;;;;;;4965469;28;20206;-77
2021/03/03 03:05:10;;;;;;;8.80;4.40;;;10.50;99.90;;;;;;4971392;28;20341;-76
2021/03/03 03:07:39;;;;;;;14.73;4.77;;;10.60;99.90;;;;;;4971552;28;20205;-76
2021/03/03 03:10:09;;;;;;;16.00;4.97;;;10.50;99.90;;;;;;4971811;28;20212;-76
2021/03/03 03:12:38;;;;;;;7.30;4.63;;;10.50;99.90;;;;;;4972055;28;20216;-76
2021/03/03 03:15:06;;;;;;;12.23;5.10;;;10.40;99.90;;;;;;4971806;28;20611;-77
2021/03/03 03:17:35;;;;;;;8.33;4.60;;;10.40;99.90;;;;;;4972131;28;20210;-77
2021/03/03 03:20:04;;;;;;;12.13;5.07;;;10.50;99.90;;;;;;4971680;28;20220;-77
2021/03/03 03:22:33;;;;;;;11.43;5.10;;;10.50;99.90;;;;;;4972053;28;20209;-77
2021/03/03 03:25:02;;;;;;;9.90;5.37;;;10.50;99.90;;;;;;4971950;28;20220;-75
2021/03/03 03:27:29;;;;;;;10.43;4.30;;;10.40;99.90;;;;;;4971495;28;20209;-74
2021/03/03 03:29:58;;;;;;;8.43;4.40;;;10.50;99.90;;;;;;4971666;28;20213;-75
2021/03/03 03:32:25;;;;;;;8.90;4.70;;;10.50;99.90;;;;;;4971376;28;20210;-75
2021/03/03 03:34:53;;;;;;;11.43;5.03;;;10.40;99.90;;;;;;4971909;28;20209;-75
2021/03/03 03:37:21;;;;;;;7.70;4.60;;;10.40;99.90;;;;;;4971158;28;20222;-77
2021/03/03 03:39:48;;;;;;;11.40;5.33;;;10.40;99.90;;;;;;4971403;28;20237;-77
2021/03/03 03:42:15;;;;;;;7.67;5.07;;;10.40;99.90;;;;;;4971258;28;20206;-76
2021/03/03 03:44:43;;;;;;;8.77;5.20;;;10.40;99.90;;;;;;4971637;28;20213;-76
2021/03/03 03:47:11;;;;;;;11.00;4.83;;;10.40;99.90;;;;;;4971169;28;20210;-75
2021/03/03 03:49:38;;;;;;;10.87;4.80;;;10.40;99.90;;;;;;4971576;28;20217;-75
2021/03/03 03:52:05;;;;;;;8.07;5.23;;;10.40;99.90;;;;;;4971570;28;20245;-75
2021/03/03 03:54:32;;;;;;;6.87;4.60;;;10.40;99.90;;;;;;4971895;28;20217;-76
2021/03/03 03:56:58;;;;;;;8.90;5.43;;;10.30;99.90;;;;;;4971673;28;20268;-75
2021/03/03 03:59:25;;;;;;;8.20;4.43;;;10.30;99.90;;;;;;4970917;28;20713;-75
2021/03/03 04:01:51;;;;;;;9.83;5.30;;;10.30;99.90;;;;;;4971668;28;20213;-74
2021/03/03 04:04:18;;;;;;;14.37;5.80;;;10.30;99.90;;;;;;4971030;28;20205;-75
2021/03/03 04:06:44;;;;;;;8.17;4.90;;;10.30;99.90;;;;;;4973103;28;20206;-75
2021/03/03 04:09:11;;;;;;;6.43;3.97;;;10.20;99.90;;;;;;4974633;28;20214;-74
2021/03/03 04:11:38;;;;;;;8.93;4.97;;;10.20;99.90;;;;;;4974870;28;20673;-74
2021/03/03 04:14:09;;;;;;;13.77;5.23;;;10.20;99.90;;;;;;4974970;28;20700;-74
2021/03/03 04:16:36;;;;;;;9.37;4.30;;;10.20;99.90;;;;;;4975201;28;20337;-74
2021/03/03 04:19:02;;;;;;;11.13;5.17;;;10.20;99.90;;;;;;4975422;28;20244;-74
2021/03/03 04:21:29;;;;;;;10.93;5.10;;;10.20;99.90;;;;;;4974283;28;20209;-75
2021/03/03 04:23:56;;;;;;;6.67;4.83;;;10.20;99.90;;;;;;4975052;28;20205;-75
2021/03/03 04:26:23;;;;;;;7.23;5.00;;;10.20;99.90;;;;;;4974329;28;20216;-75
2021/03/03 04:28:49;;;;;;;10.80;5.60;;;10.20;99.90;;;;;;4974860;28;20217;-75
2021/03/03 04:31:16;;;;;;;12.90;5.60;;;10.20;99.90;;;;;;4974440;28;20268;-75
2021/03/03 04:33:42;;;;;;;12.83;5.10;;;10.20;99.90;;;;;;4974829;28;20341;-75
2021/03/03 04:36:09;;;;;;;10.50;5.30;;;10.20;99.90;;;;;;4974121;28;20572;-75
2021/03/03 04:38:35;;;;;;;8.67;5.10;;;10.20;99.90;;;;;;4974048;28;20731;-75
2021/03/03 04:41:02;;;;;;;9.77;5.33;;;10.20;99.90;;;;;;4974776;28;20558;-76
2021/03/03 04:43:29;;;;;;;7.83;5.00;;;10.20;99.90;;;;;;4973960;28;20206;-76
2021/03/03 04:45:56;;;;;;;6.63;4.90;;;10.10;99.90;;;;;;4974704;28;20220;-75
2021/03/03 04:48:22;;;;;;;8.83;5.43;;;10.10;99.90;;;;;;4974206;28;20216;-76
2021/03/03 04:50:48;;;;;;;10.90;4.83;;;10.10;99.90;;;;;;4974198;28;20217;-76
2021/03/03 04:53:15;;;;;;;8.60;5.63;;;10.10;99.90;;;;;;4974041;28;20213;-75
2021/03/03 04:55:41;;;;;;;8.93;5.50;;;10.10;99.90;;;;;;4974426;28;20239;-75
2021/03/03 04:58:08;;;;;;;13.73;5.73;;;10.10;99.90;;;;;;4973971;28;20648;-75
2021/03/03 05:00:35;;;;;;;7.93;5.67;;;10.20;99.90;;;;;;4974302;28;20214;-75
2021/03/03 05:03:02;;;;;;;12.63;5.53;;;10.10;99.90;;;;;;4974546;28;20233;-74
2021/03/03 05:05:28;;;;;;;6.80;4.77;;;10.10;99.90;;;;;;4973584;28;20232;-73
2021/03/03 05:07:55;;;;;;;14.87;6.60;;;10.10;99.90;;;;;;4973968;28;20690;-74
2021/03/03 05:10:21;;;;;;;8.53;4.13;;;10.20;99.90;;;;;;4973767;28;20206;-74
2021/03/03 05:12:48;;;;;;;7.17;5.00;;;10.10;99.90;;;;;;4973901;28;20219;-74
2021/03/03 05:15:15;;;;;;;10.70;4.97;;;10.10;99.90;;;;;;4973562;28;20583;-74
2021/03/03 05:17:42;;;;;;;10.77;5.13;;;10.00;99.90;;;;;;4973906;28;20205;-74
2021/03/03 05:20:09;;;;;;;10.47;5.53;;;10.00;99.90;;;;;;4973320;28;20264;-74
2021/03/03 05:22:36;;;;;;;13.73;5.63;;;10.10;99.90;;;;;;4973861;28;20210;-75
2021/03/03 05:25:04;;;;;;;10.73;5.07;;;10.00;99.90;;;;;;4974161;28;20280;-74
2021/03/03 05:27:30;;;;;;;11.63;5.37;;;10.00;99.90;;;;;;4973586;28;20213;-75
2021/03/03 05:29:56;;;;;;;9.43;4.57;;;9.90;99.90;;;;;;4973721;28;20213;-75
2021/03/03 05:32:23;;;;;;;10.67;4.93;;;9.90;99.90;;;;;;4973307;28;20216;-74
2021/03/03 05:34:50;;;;;;;9.93;5.60;;;10.00;99.90;;;;;;4973048;28;20213;-74
2021/03/03 05:37:17;;;;;;;8.17;4.77;;;9.90;99.90;;;;;;4973200;28;20232;-73
2021/03/03 05:39:44;;;;;;;13.93;5.33;;;9.90;99.90;;;;;;4973215;28;20241;-75
2021/03/03 05:42:10;;;;;;;9.43;5.37;;;9.90;99.90;;;;;;4973220;28;20217;-74
2021/03/03 05:44:37;;;;;;;9.57;5.17;;;9.90;99.90;;;;;;4973567;28;20206;-72
2021/03/03 05:47:05;;;;;;;7.33;5.30;;;9.90;99.90;;;;;;4973559;28;20213;-72
2021/03/03 05:49:36;;;;;;;7.40;5.17;;;10.00;99.90;;;;;;4973044;28;20216;-72
2021/03/03 05:52:04;;;;;;;8.77;5.30;;;9.90;99.90;;;;;;4973616;28;20205;-72
2021/03/03 05:54:31;;;;;;;11.73;5.50;;;9.90;99.90;;;;;;4973151;28;20213;-73
2021/03/03 05:56:58;;;;;;;12.87;5.77;;;9.80;99.90;;;;;;4972551;28;20224;-72
2021/03/03 05:59:25;;;;;;;14.83;5.57;;;9.80;99.90;;;;;;4972853;28;20248;-74
2021/03/03 06:01:52;;;;;;;17.80;5.17;;;9.90;99.90;;;;;;4972780;28;20214;-74
2021/03/03 06:04:18;;;;;;;11.50;5.23;;;9.90;99.90;;;;;;4972319;28;20216;-73
2021/03/03 06:06:45;;;;;;;10.10;4.77;;;9.80;99.90;;;;;;4973164;28;20248;-73
2021/03/03 06:09:12;;;;;;;5.97;5.07;;;9.80;99.90;;;;;;4972143;28;20692;-76
2021/03/03 06:11:39;;;;;;;11.40;5.03;;;9.80;99.90;;;;;;4972781;28;20704;-76
2021/03/03 06:14:06;;;;;;;12.23;5.40;;;9.90;99.90;;;;;;4972793;28;20205;-73
2021/03/03 06:16:32;;;;;;;11.10;4.90;;;9.90;99.90;;;;;;4972615;28;20249;-73
2021/03/03 06:18:59;;;;;;;6.33;5.20;;;9.90;99.90;;;;;;4972694;28;20252;-72
2021/03/03 06:21:27;;;;;;;7.90;4.43;;;9.80;99.90;;;;;;4972427;28;20306;-71
2021/03/03 06:24:03;;;;;;;10.87;6.27;;;9.80;99.90;;;;;;4972670;28;20216;-72
2021/03/03 06:26:31;;;;;;;10.23;4.97;;;9.80;99.90;;;;;;4972551;28;20205;-71
2021/03/03 06:28:57;;;;;;;8.13;5.93;;;9.80;99.90;;;;;;4972354;28;20236;-73
2021/03/03 06:31:26;;;;;;;6.70;4.17;;;10.00;99.90;;;;;;4971853;28;20217;-72
2021/03/03 06:33:54;;;;;;;8.67;4.80;;;10.00;99.90;;;;;;4972581;28;20213;-71
2021/03/03 06:36:22;;;;;;;12.50;4.30;;;9.90;99.90;;;;;;4972151;28;20634;-74
2021/03/03 06:38:49;;;;;;;10.30;5.50;;;9.90;99.90;;;;;;4971554;28;20244;-72
2021/03/03 06:41:15;;;;;;;8.60;4.93;;;10.00;99.90;;;;;;4971636;28;20631;-71
2021/03/03 06:43:55;;;;;;;8.53;4.90;;;10.00;99.90;;;;;;4971920;28;20256;-73
2021/03/03 06:46:22;;;;;;;8.33;4.87;;;10.10;99.90;;;;;;4971654;28;20233;-72
2021/03/03 06:48:49;;;;;;;11.83;4.60;;;10.00;99.90;;;;;;4972152;28;20209;-71
2021/03/03 06:51:22;;;;;;;11.30;4.40;;;10.10;99.90;;;;;;4971611;28;20220;-71
2021/03/03 06:53:50;;;;;;;10.60;5.40;;;10.10;99.90;;;;;;4971962;28;20264;-71
2021/03/03 06:56:32;;;;;;;9.47;4.70;;;10.00;99.90;;;;;;4971488;28;20205;-75
2021/03/03 06:59:13;;;;;;;8.23;5.53;;;10.00;99.90;;;;;;4971943;28;20221;-72
2021/03/03 07:01:41;;;;;;;8.63;5.00;;;10.10;99.90;;;;;;4971604;28;20685;-75
2021/03/03 07:04:19;;;;;;;11.53;4.57;;;10.10;99.90;;;;;;4971283;28;20217;-74
2021/03/03 07:06:45;;;;;;;8.30;5.00;;;10.10;99.90;;;;;;4971744;28;20228;-75
2021/03/03 07:09:12;;;;;;;11.93;5.40;;;10.10;99.90;;;;;;4971390;28;20206;-75
2021/03/03 07:11:39;;;;;;;5.93;4.47;;;10.20;99.90;;;;;;4972318;28;20217;-75
2021/03/03 07:14:14;;;;;;;9.20;4.47;;;10.20;99.90;;;;;;4971788;28;20260;-75
2021/03/03 07:17:08;;;;;;;15.33;5.20;;;10.20;99.90;;;;;;4971713;28;20216;-75
2021/03/03 07:19:37;;;;;;;9.27;4.80;;;10.20;99.90;;;;;;4971570;28;20221;-75
2021/03/03 07:22:07;;;;;;;10.20;4.87;;;10.30;99.90;;;;;;4972385;28;20260;-75
2021/03/03 07:24:34;;;;;;;12.17;5.97;;;10.30;99.90;;;;;;4971801;28;20212;-74
2021/03/03 07:27:03;;;;;;;10.17;4.70;;;10.40;99.90;;;;;;4971955;28;20255;-76
2021/03/03 07:29:31;;;;;;;8.43;5.07;;;10.40;99.90;;;;;;4971324;28;20281;-74
2021/03/03 07:31:57;;;;;;;8.03;5.37;;;10.40;99.90;;;;;;4971900;28;20209;-75
2021/03/03 07:34:25;;;;;;;13.67;6.17;;;10.40;99.90;;;;;;4971653;28;20629;-74
2021/03/03 07:36:52;;;;;;;11.47;6.10;;;10.40;99.90;;;;;;4971616;28;20221;-73
2021/03/03 07:39:21;;;;;;;6.37;4.80;;;10.50;99.90;;;;;;4971111;28;20248;-75
2021/03/03 07:41:48;;;;;;;9.33;5.47;;;10.50;99.90;;;;;;4973775;28;20735;-75
2021/03/03 07:44:20;;;;;;;13.73;4.93;;;10.50;99.90;;;;;;4975222;28;20213;-79
2021/03/03 07:46:49;;;;;;;7.57;5.23;;;10.60;99.90;;;;;;4977523;28;20217;-74
2021/03/03 07:49:24;;;;;;;11.63;6.10;;;10.70;99.90;;;;;;4973843;28;20677;-76
2021/03/03 07:51:51;;;;;;;10.73;5.80;;;10.90;99.90;;;;;;4975321;28;20228;-78
2021/03/03 07:54:18;;;;;;;13.27;5.40;;;10.80;99.90;;;;;;4975015;28;20236;-77
2021/03/03 07:56:45;;;;;;;7.07;5.07;;;10.70;99.90;;;;;;4975263;28;20213;-77
2021/03/03 07:59:12;;;;;;;17.23;5.27;;;10.70;99.90;;;;;;4974718;28;20603;-76
2021/03/03 08:01:38;;;;;;;12.60;5.37;;;10.80;99.90;;;;;;4975097;28;20217;-75
2021/03/03 08:04:06;;;;;;;9.20;5.87;;;10.80;99.90;;;;;;4975201;28;20201;-76
2021/03/03 08:06:36;;;;;;;6.53;5.10;;;10.80;99.90;;;;;;4975315;28;20665;-76
2021/03/03 08:09:13;;;;;;;14.43;6.27;;;10.80;99.90;;;;;;4975429;28;20213;-76
2021/03/03 08:11:42;;;;;;;10.77;5.80;;;10.90;99.90;;;;;;4966489;28;20209;-75
2021/03/03 08:14:35;;;;;;;8.07;4.97;;;10.90;99.90;;;;;;4971702;28;20209;-80
2021/03/03 08:17:03;;;;;;;8.57;5.60;;;11.00;99.90;;;;;;4972777;28;20688;-77
2021/03/03 08:20:06;;;;;;;9.53;5.73;;;11.00;99.90;;;;;;4974333;28;20238;-76
2021/03/03 08:22:51;;;;;;;15.87;6.40;;;11.00;99.90;;;;;;4969910;28;20256;-76
2021/03/03 08:25:41;;;;;;;7.67;6.00;;;11.10;99.90;;;;;;4967925;28;20221;-80
2021/03/03 08:28:26;;;;;;;15.93;5.90;;;11.10;99.90;;;;;;4973165;28;20213;-75
2021/03/03 08:31:30;;;;;;;11.77;5.80;;;11.20;99.90;;;;;;4971577;28;20202;-74
2021/03/03 08:34:07;;;;;;;7.37;5.00;;;11.20;99.90;;;;;;4969128;28;20645;-74
2021/03/03 08:36:56;;;;;;;10.17;5.37;;;11.20;99.90;;;;;;4965942;28;20209;-75
2021/03/03 08:39:35;;;;;;;8.03;5.40;;;11.20;99.90;;;;;;4967752;28;20222;-76
2021/03/03 08:42:22;;;;;;;5.97;4.60;;;11.30;99.90;;;;;;4971875;28;20593;-75
2021/03/03 08:45:01;;;;;;;7.93;4.83;;;11.40;99.90;;;;;;4972195;28;20225;-77
2021/03/03 08:47:47;;;;;;;11.90;5.40;;;11.50;99.90;;;;;;4966443;28;20206;-77
2021/03/03 08:50:41;;;;;;;7.10;4.73;;;11.50;99.90;;;;;;4966918;28;20214;-77
2021/03/03 08:53:22;;;;;;;9.63;5.93;;;11.60;99.90;;;;;;4967704;28;20213;-76
2021/03/03 08:55:49;;;;;;;8.10;5.77;;;11.50;99.90;;;;;;4970504;28;20263;-74
2021/03/03 08:58:58;;;;;;;12.33;6.00;;;11.40;99.90;;;;;;4966459;28;20205;-77
2021/03/03 09:01:54;;;;;;;10.20;5.63;;;11.50;99.90;;;;;;4970776;28;20296;-77
2021/03/03 09:04:22;;;;;;;16.30;7.07;;;11.60;99.90;;;;;;4971069;28;20237;-78
2021/03/03 09:06:50;;;;;;;9.40;5.67;;;11.50;99.90;;;;;;4971445;28;20699;-77
2021/03/03 09:09:17;;;;;;;10.43;6.17;;;11.50;99.90;;;;;;4971673;28;20587;-77
2021/03/03 09:11:44;;;;;;;12.57;6.30;;;11.60;99.90;;;;;;4972283;28;20213;-77
2021/03/03 09:14:11;;;;;;;13.77;6.20;;;11.60;99.90;;;;;;4969459;28;20205;-77
2021/03/03 09:16:53;;;;;;;11.60;6.00;;;11.70;99.90;;;;;;4971956;28;20205;-77
2021/03/03 09:19:20;;;;;;;8.17;6.70;;;11.70;99.90;;;;;;4970517;28;20278;-77
2021/03/03 09:21:46;;;;;;;12.17;5.77;;;11.80;99.90;;;;;;4971378;28;20205;-77
2021/03/03 09:24:14;;;;;;;11.53;5.37;;;11.90;99.90;;;;;;4970087;28;20209;-79
2021/03/03 09:26:43;;;;;;;12.53;6.03;;;11.90;99.90;;;;;;4970714;28;20205;-77
2021/03/03 09:29:30;;;;;;;9.77;6.10;;;12.10;99.90;;;;;;4972134;28;20205;-77
2021/03/03 09:31:57;;;;;;;7.27;5.03;;;12.10;99.90;;;;;;4968426;28;20209;-78
2021/03/03 09:34:24;;;;;;;11.50;5.90;;;12.00;99.90;;;;;;4969181;28;20205;-77
2021/03/03 09:36:58;;;;;;;13.63;6.40;;;12.10;99.90;;;;;;4950305;28;643079;-77
2021/03/03 09:39:26;;;;;;;10.90;6.10;;;12.10;99.90;;;;;;4971670;28;20236;-76
2021/03/03 09:41:58;;;;;;;8.67;6.00;;;12.30;99.90;;;;;;4972582;28;20209;-77
2021/03/03 09:44:25;;;;;;;18.27;6.13;;;12.40;99.90;;;;;;4971514;28;20216;-78
2021/03/03 09:46:53;;;;;;;17.60;6.70;;;12.30;99.90;;;;;;4972449;28;20221;-79
2021/03/03 09:49:22;;;;;;;10.00;6.53;;;12.50;99.90;;;;;;4968284;28;20213;-78
2021/03/03 09:51:49;;;;;;;15.27;6.20;;;12.20;99.90;;;;;;4971991;28;20241;-76
2021/03/03 09:54:26;;;;;;;11.27;5.60;;;12.30;99.90;;;;;;4971204;28;20234;-77
2021/03/03 09:56:53;;;;;;;11.53;5.43;;;12.50;99.90;;;;;;4970840;28;20228;-77
2021/03/03 09:59:19;;;;;;;11.33;5.20;;;12.80;99.90;;;;;;4972602;28;20225;-77
2021/03/03 10:01:46;;;;;;;10.23;5.60;;;12.60;99.90;;;;;;4972635;28;20260;-78
2021/03/03 10:04:15;;;;;;;13.47;7.03;;;12.70;99.90;;;;;;4968950;28;20593;-77
2021/03/03 10:06:42;;;;;;;12.00;6.77;;;12.90;99.90;;;;;;4971943;28;20288;-77
2021/03/03 10:09:08;;;;;;;12.47;6.20;;;12.60;99.90;;;;;;4970106;28;20248;-79
2021/03/03 10:11:35;;;;;;;11.77;7.93;;;12.50;99.90;;;;;;4972369;28;20205;-75
2021/03/03 10:14:05;;;;;;;8.67;5.67;;;12.70;99.90;;;;;;4972791;28;20213;-75
2021/03/03 10:16:32;;;;;;;8.43;5.97;;;12.60;99.90;;;;;;4972874;28;20629;-78
2021/03/03 10:19:04;;;;;;;12.13;6.07;;;12.80;99.90;;;;;;4970762;28;20233;-81
2021/03/03 10:21:32;;;;;;;11.53;6.17;;;13.20;99.90;;;;;;4969919;28;20220;-77
2021/03/03 10:23:58;;;;;;;12.27;6.85;;;13.10;99.90;;;;;;4967073;28;20213;-76
2021/03/03 10:26:40;;;;;;;9.73;6.47;;;13.10;99.90;;;;;;4969844;28;20225;-76
2021/03/03 10:29:07;;;;;;;13.87;6.73;;;13.20;99.90;;;;;;4971087;28;20273;-77
2021/03/03 10:31:34;;;;;;;18.03;6.43;;;13.00;99.90;;;;;;4969713;28;20209;-77
2021/03/03 10:34:12;;;;;;;11.00;6.47;;;13.20;99.90;;;;;;4972579;28;20257;-78
2021/03/03 10:36:41;;;;;;;8.37;5.60;;;13.00;99.90;;;;;;4970075;28;20209;-76
2021/03/03 10:39:08;;;;;;;10.10;5.20;;;13.10;99.90;;;;;;4971165;28;20721;-74
2021/03/03 10:41:35;;;;;;;10.73;5.93;;;13.20;99.90;;;;;;4971765;28;20212;-75
2021/03/03 10:44:02;;;;;;;7.50;4.97;;;13.20;99.90;;;;;;4972266;28;20583;-77
2021/03/03 10:46:29;;;;;;;7.80;5.43;;;13.00;99.90;;;;;;4969285;28;20220;-80
2021/03/03 10:48:56;;;;;;;8.60;5.82;;;13.20;99.90;;;;;;4971892;28;20213;-76
2021/03/03 10:51:35;;;;;;;11.63;6.80;;;13.20;99.90;;;;;;4971694;28;20214;-77
2021/03/03 10:54:02;;;;;;;10.80;6.93;;;13.30;99.90;;;;;;4971703;28;20197;-78
2021/03/03 10:56:30;;;;;;;11.93;6.77;;;13.60;99.90;;;;;;4965378;28;20214;-75
2021/03/03 10:58:58;;;;;;;9.30;6.10;;;13.50;99.90;;;;;;4971738;28;20233;-76
2021/03/03 11:01:40;;;;;;;9.83;6.27;;;13.50;99.90;;;;;;4971380;28;20214;-74
2021/03/03 11:04:07;;;;;;;9.38;6.47;;;13.50;99.90;;;;;;4971478;28;20205;-75
2021/03/03 11:06:34;;;;;;;12.18;6.78;;;13.60;99.90;;;;;;4972265;28;20221;-76
2021/03/03 11:09:04;;;;;;;8.57;6.03;;;13.90;99.90;;;;;;4971764;28;20264;-76
2021/03/03 11:11:30;;;;;;;11.57;6.95;;;13.60;99.90;;;;;;4972135;28;20264;-75
2021/03/03 11:13:56;;;;;;;9.30;6.28;;;13.90;99.90;;;;;;4963579;28;20221;-76
2021/03/03 11:16:23;;;;;;;10.30;6.28;;;13.80;99.90;;;;;;4969447;28;20201;-76
2021/03/03 11:18:49;;;;;;;11.18;6.78;;;14.00;99.90;;;;;;4971484;28;20230;-75
2021/03/03 11:21:16;;;;;;;8.88;6.13;;;14.10;99.90;;;;;;4970824;28;20205;-74
2021/03/03 11:23:42;;;;;;;11.55;7.18;;;14.00;99.90;;;;;;4971288;28;20201;-75
2021/03/03 11:26:10;;;;;;;9.73;6.93;;;13.80;99.90;;;;;;4971091;28;20260;-74
2021/03/03 11:28:36;;;;;;;10.80;5.97;;;14.30;99.90;;;;;;4970226;28;20629;-75
2021/03/03 11:31:04;;;;;;;7.80;6.65;;;14.10;99.90;;;;;;4965227;28;20698;-74
2021/03/03 11:33:30;;;;;;;12.55;8.27;;;14.00;99.90;;;;;;4965089;28;20682;-74
2021/03/03 11:35:57;;;;;;;8.32;6.70;;;14.10;99.90;;;;;;4971871;28;20206;-78
2021/03/03 11:38:23;;;;;;;10.85;7.18;;;14.40;99.90;;;;;;4970115;28;20217;-74
2021/03/03 11:40:50;;;;;;;10.43;6.43;;;14.20;99.90;;;;;;4971626;28;20260;-73
2021/03/03 11:43:18;;;;;;;11.55;7.45;;;14.30;99.90;;;;;;4970858;28;20710;-74
2021/03/03 11:45:45;;;;;;;11.07;7.35;;;14.30;99.90;;;;;;4970821;28;20205;-74
2021/03/03 11:48:11;;;;;;;13.88;7.00;;;14.30;99.90;;;;;;4969634;28;20216;-74
2021/03/03 11:50:38;;;;;;;20.60;7.47;;;14.00;99.90;;;;;;4970964;28;20214;-75
2021/03/03 11:53:04;;;;;;;12.77;8.30;;;14.10;99.90;;;;;;4971437;28;20671;-74
2021/03/03 11:55:31;;;;;;;11.45;7.53;;;14.00;99.90;;;;;;4971049;28;20206;-74
2021/03/03 11:57:57;;;;;;;11.85;8.32;;;14.60;99.90;;;;;;4971172;28;20678;-75
2021/03/03 12:00:25;;;;;;;13.02;8.32;;;14.50;99.90;;;;;;4962391;28;20234;-73
2021/03/03 12:02:51;;;;;;;9.88;6.75;;;14.20;99.90;;;;;;4966008;28;20563;-72
2021/03/03 12:05:18;;;;;;;10.15;8.73;;;14.60;99.90;;;;;;4969725;28;20681;-73
2021/03/03 12:07:44;;;;;;;14.52;8.82;;;14.80;99.90;;;;;;4969099;28;20211;-75
2021/03/03 12:10:12;;;;;;;10.45;7.65;;;14.70;99.90;;;;;;4968872;28;20701;-73
2021/03/03 12:12:39;;;;;;;12.10;7.55;;;14.80;99.90;;;;;;4969474;28;20214;-74
2021/03/03 12:15:07;;;;;;;13.02;8.50;;;14.70;99.90;;;;;;4969166;28;20206;-73
2021/03/03 12:17:35;;;;;;;16.65;8.57;;;14.70;99.90;;;;;;4969378;28;20748;-75
2021/03/03 12:20:02;;;;;;;9.15;6.90;;;14.70;99.90;;;;;;4970523;28;20717;-72
2021/03/03 12:22:28;;;;;;;9.90;7.10;;;14.50;99.90;;;;;;4961298;28;20293;-73
2021/03/03 12:24:55;;;;;;;13.38;7.82;;;14.70;99.90;;;;;;4960191;28;20649;-73
2021/03/03 12:27:21;;;;;;;14.43;8.23;;;14.70;99.90;;;;;;4971571;28;20205;-72
2021/03/03 12:29:47;;;;;;;9.27;6.03;;;15.10;99.90;;;;;;4968300;28;20212;-72
2021/03/03 12:32:14;;;;;;;17.13;7.18;;;15.10;99.90;;;;;;4973509;28;20214;-73
2021/03/03 12:34:41;;;;;;;13.20;7.50;;;15.20;99.90;;;;;;4970705;28;20209;-71
2021/03/03 12:37:08;;;;;;;10.75;7.55;;;15.30;99.90;;;;;;4973865;28;20790;-74
2021/03/03 12:39:34;;;;;;;11.02;7.38;;;14.90;99.90;;;;;;4973647;28;20237;-72
2021/03/03 12:42:01;;;;;;;11.98;7.70;;;14.80;99.90;;;;;;4974537;28;20268;-72
2021/03/03 12:44:27;;;;;;;11.13;6.78;;;14.80;99.90;;;;;;4974096;28;20229;-71
2021/03/03 12:46:55;;;;;;;10.05;7.68;;;14.80;99.90;;;;;;4969961;28;20673;-74
2021/03/03 12:49:23;;;;;;;8.35;6.35;;;14.70;99.90;;;;;;4971518;28;20700;-74